sensor_id;sensor_type;location;lat;lon;timestamp;temperature;humidity
55135;DHT22;41031;44.750;11.308;2022-11-27T00:01:14;5.90;98.10
55135;DHT22;41031;44.750;11.308;2022-11-27T00:03:42;5.90;98.10
55135;DHT22;41031;44.750;11.308;2022-11-27T00:06:14;5.90;98.10
55135;DHT22;41031;44.750;11.308;2022-11-27T00:08:42;5.90;98.10
55135;DHT22;41031;44.750;11.308;2022-11-27T00:11:18;5.80;98.00
55135;DHT22;41031;44.750;11.308;2022-11-27T00:13:46;5.80;98.00
55135;DHT22;41031;44.750;11.308;2022-11-27T00:16:14;5.80;98.00
55135;DHT22;41031;44.750;11.308;2022-11-27T00:18:42;5.80;98.00
55135;DHT22;41031;44.750;11.308;2022-11-27T00:21:20;5.70;98.00
55135;DHT22;41031;44.750;11.308;2022-11-27T00:23:49;5.80;98.00
55135;DHT22;41031;44.750;11.308;2022-11-27T00:26:17;5.70;98.00
55135;DHT22;41031;44.750;11.308;2022-11-27T00:28:44;5.70;98.00
55135;DHT22;41031;44.750;11.308;2022-11-27T00:31:16;5.70;98.00
55135;DHT22;41031;44.750;11.308;2022-11-27T00:33:43;5.70;98.00
55135;DHT22;41031;44.750;11.308;2022-11-27T00:36:11;5.70;98.00
55135;DHT22;41031;44.750;11.308;2022-11-27T00:38:39;5.70;98.10
55135;DHT22;41031;44.750;11.308;2022-11-27T00:41:08;5.70;98.00
55135;DHT22;41031;44.750;11.308;2022-11-27T00:43:36;5.80;98.10
55135;DHT22;41031;44.750;11.308;2022-11-27T00:46:12;5.80;98.10
55135;DHT22;41031;44.750;11.308;2022-11-27T00:48:40;5.80;98.10
55135;DHT22;41031;44.750;11.308;2022-11-27T00:51:09;5.80;98.10
55135;DHT22;41031;44.750;11.308;2022-11-27T00:53:37;5.80;98.10
55135;DHT22;41031;44.750;11.308;2022-11-27T00:56:04;5.80;98.10
55135;DHT22;41031;44.750;11.308;2022-11-27T00:58:31;5.80;98.10
55135;DHT22;41031;44.750;11.308;2022-11-27T01:01:01;5.80;98.10
55135;DHT22;41031;44.750;11.308;2022-11-27T01:03:28;5.70;98.00
55135;DHT22;41031;44.750;11.308;2022-11-27T01:05:56;5.70;98.00
55135;DHT22;41031;44.750;11.308;2022-11-27T01:08:23;5.70;98.00
55135;DHT22;41031;44.750;11.308;2022-11-27T01:10:55;5.70;98.00
55135;DHT22;41031;44.750;11.308;2022-11-27T01:13:24;5.70;98.00
55135;DHT22;41031;44.750;11.308;2022-11-27T01:16:06;5.70;98.00
55135;DHT22;41031;44.750;11.308;2022-11-27T01:18:35;5.60;98.00
55135;DHT22;41031;44.750;11.308;2022-11-27T01:21:03;5.60;97.90
55135;DHT22;41031;44.750;11.308;2022-11-27T01:23:31;5.60;98.00
55135;DHT22;41031;44.750;11.308;2022-11-27T01:26:02;5.60;98.00
55135;DHT22;41031;44.750;11.308;2022-11-27T01:28:30;5.50;98.00
55135;DHT22;41031;44.750;11.308;2022-11-27T01:30:58;5.50;98.00
55135;DHT22;41031;44.750;11.308;2022-11-27T01:33:29;5.50;98.00
55135;DHT22;41031;44.750;11.308;2022-11-27T01:35:59;5.50;98.00
55135;DHT22;41031;44.750;11.308;2022-11-27T01:38:27;5.50;98.00
55135;DHT22;41031;44.750;11.308;2022-11-27T01:48:51;5.50;97.90
55135;DHT22;41031;44.750;11.308;2022-11-27T01:51:19;5.50;97.90
55135;DHT22;41031;44.750;11.308;2022-11-27T01:53:48;5.40;97.90
55135;DHT22;41031;44.750;11.308;2022-11-27T01:56:15;5.40;97.90
55135;DHT22;41031;44.750;11.308;2022-11-27T01:58:43;5.40;97.90
55135;DHT22;41031;44.750;11.308;2022-11-27T02:01:10;5.40;97.90
55135;DHT22;41031;44.750;11.308;2022-11-27T02:03:37;5.30;97.90
55135;DHT22;41031;44.750;11.308;2022-11-27T02:06:04;5.30;97.90
55135;DHT22;41031;44.750;11.308;2022-11-27T02:08:32;5.40;98.00
55135;DHT22;41031;44.750;11.308;2022-11-27T02:11:09;5.30;98.00
55135;DHT22;41031;44.750;11.308;2022-11-27T02:13:54;5.40;98.00
55135;DHT22;41031;44.750;11.308;2022-11-27T02:16:35;5.40;98.00
55135;DHT22;41031;44.750;11.308;2022-11-27T02:25:31;5.40;98.10
55135;DHT22;41031;44.750;11.308;2022-11-27T02:31:30;5.40;98.00
55135;DHT22;41031;44.750;11.308;2022-11-27T02:37:04;5.40;98.00
55135;DHT22;41031;44.750;11.308;2022-11-27T02:42:22;5.40;98.10
55135;DHT22;41031;44.750;11.308;2022-11-27T02:44:59;5.40;98.10
55135;DHT22;41031;44.750;11.308;2022-11-27T02:47:28;5.40;98.10
55135;DHT22;41031;44.750;11.308;2022-11-27T02:49:56;5.40;98.20
55135;DHT22;41031;44.750;11.308;2022-11-27T02:52:25;5.40;98.20
55135;DHT22;41031;44.750;11.308;2022-11-27T02:54:56;5.40;98.10
55135;DHT22;41031;44.750;11.308;2022-11-27T02:57:26;5.30;98.00
55135;DHT22;41031;44.750;11.308;2022-11-27T02:59:55;5.30;98.10
55135;DHT22;41031;44.750;11.308;2022-11-27T03:02:28;5.30;97.90
55135;DHT22;41031;44.750;11.308;2022-11-27T03:04:58;5.30;97.90
55135;DHT22;41031;44.750;11.308;2022-11-27T03:07:39;5.20;97.90
55135;DHT22;41031;44.750;11.308;2022-11-27T03:10:22;5.20;97.90
55135;DHT22;41031;44.750;11.308;2022-11-27T03:12:50;5.20;97.90
55135;DHT22;41031;44.750;11.308;2022-11-27T03:15:18;5.20;97.90
55135;DHT22;41031;44.750;11.308;2022-11-27T03:20:56;5.10;97.90
55135;DHT22;41031;44.750;11.308;2022-11-27T03:23:27;5.10;97.90
55135;DHT22;41031;44.750;11.308;2022-11-27T03:25:54;5.10;97.90
55135;DHT22;41031;44.750;11.308;2022-11-27T03:28:21;5.10;98.00
55135;DHT22;41031;44.750;11.308;2022-11-27T03:30:48;5.10;97.90
55135;DHT22;41031;44.750;11.308;2022-11-27T03:33:16;5.10;97.90
55135;DHT22;41031;44.750;11.308;2022-11-27T03:35:43;5.10;97.90
55135;DHT22;41031;44.750;11.308;2022-11-27T03:38:11;5.00;97.90
55135;DHT22;41031;44.750;11.308;2022-11-27T03:40:49;5.00;98.00
55135;DHT22;41031;44.750;11.308;2022-11-27T03:43:26;5.00;98.00
55135;DHT22;41031;44.750;11.308;2022-11-27T03:46:04;5.00;98.00
55135;DHT22;41031;44.750;11.308;2022-11-27T03:48:40;5.00;98.00
55135;DHT22;41031;44.750;11.308;2022-11-27T03:56:56;5.00;98.00
55135;DHT22;41031;44.750;11.308;2022-11-27T03:59:29;5.00;98.00
55135;DHT22;41031;44.750;11.308;2022-11-27T04:01:57;5.00;98.00
55135;DHT22;41031;44.750;11.308;2022-11-27T04:04:24;5.00;98.00
55135;DHT22;41031;44.750;11.308;2022-11-27T04:06:51;5.00;98.00
55135;DHT22;41031;44.750;11.308;2022-11-27T04:09:19;5.00;97.90
55135;DHT22;41031;44.750;11.308;2022-11-27T04:11:45;5.00;97.90
55135;DHT22;41031;44.750;11.308;2022-11-27T04:14:12;5.00;97.80
55135;DHT22;41031;44.750;11.308;2022-11-27T04:16:39;5.00;97.80
55135;DHT22;41031;44.750;11.308;2022-11-27T04:19:07;4.90;97.80
55135;DHT22;41031;44.750;11.308;2022-11-27T04:21:35;4.90;97.80
55135;DHT22;41031;44.750;11.308;2022-11-27T04:24:02;4.90;97.70
55135;DHT22;41031;44.750;11.308;2022-11-27T04:26:29;4.80;97.70
55135;DHT22;41031;44.750;11.308;2022-11-27T04:28:56;4.80;97.70
55135;DHT22;41031;44.750;11.308;2022-11-27T04:31:23;4.80;97.70
55135;DHT22;41031;44.750;11.308;2022-11-27T04:33:50;4.70;97.70
55135;DHT22;41031;44.750;11.308;2022-11-27T04:36:17;4.70;97.60
55135;DHT22;41031;44.750;11.308;2022-11-27T04:38:44;4.70;97.60
55135;DHT22;41031;44.750;11.308;2022-11-27T04:41:11;4.70;97.60
55135;DHT22;41031;44.750;11.308;2022-11-27T04:43:38;4.70;97.70
55135;DHT22;41031;44.750;11.308;2022-11-27T04:46:05;4.60;97.70
55135;DHT22;41031;44.750;11.308;2022-11-27T04:48:33;4.60;97.70
55135;DHT22;41031;44.750;11.308;2022-11-27T04:51:00;4.60;97.70
55135;DHT22;41031;44.750;11.308;2022-11-27T04:53:27;4.60;97.70
55135;DHT22;41031;44.750;11.308;2022-11-27T04:55:54;4.60;97.70
55135;DHT22;41031;44.750;11.308;2022-11-27T04:58:21;4.60;97.70
55135;DHT22;41031;44.750;11.308;2022-11-27T05:00:48;4.60;97.70
55135;DHT22;41031;44.750;11.308;2022-11-27T05:03:15;4.60;97.70
55135;DHT22;41031;44.750;11.308;2022-11-27T05:05:42;4.50;97.60
55135;DHT22;41031;44.750;11.308;2022-11-27T05:08:09;4.50;97.60
55135;DHT22;41031;44.750;11.308;2022-11-27T05:10:36;4.50;97.60
55135;DHT22;41031;44.750;11.308;2022-11-27T05:13:03;4.40;97.60
55135;DHT22;41031;44.750;11.308;2022-11-27T05:15:30;4.40;97.60
55135;DHT22;41031;44.750;11.308;2022-11-27T05:17:57;4.40;97.60
55135;DHT22;41031;44.750;11.308;2022-11-27T05:20:24;4.40;97.70
55135;DHT22;41031;44.750;11.308;2022-11-27T05:22:51;4.40;97.70
55135;DHT22;41031;44.750;11.308;2022-11-27T05:25:18;4.40;97.70
55135;DHT22;41031;44.750;11.308;2022-11-27T05:27:45;4.30;97.60
55135;DHT22;41031;44.750;11.308;2022-11-27T05:30:12;4.30;97.70
55135;DHT22;41031;44.750;11.308;2022-11-27T05:32:39;4.30;97.70
55135;DHT22;41031;44.750;11.308;2022-11-27T05:35:06;4.30;97.70
55135;DHT22;41031;44.750;11.308;2022-11-27T05:37:33;4.30;97.70
55135;DHT22;41031;44.750;11.308;2022-11-27T05:40:00;4.30;97.70
55135;DHT22;41031;44.750;11.308;2022-11-27T05:42:27;4.30;97.70
55135;DHT22;41031;44.750;11.308;2022-11-27T05:44:54;4.30;97.70
55135;DHT22;41031;44.750;11.308;2022-11-27T05:47:24;4.30;97.70
55135;DHT22;41031;44.750;11.308;2022-11-27T05:49:51;4.30;97.70
55135;DHT22;41031;44.750;11.308;2022-11-27T05:52:18;4.30;97.80
55135;DHT22;41031;44.750;11.308;2022-11-27T05:54:45;4.30;97.80
55135;DHT22;41031;44.750;11.308;2022-11-27T05:57:12;4.30;97.70
55135;DHT22;41031;44.750;11.308;2022-11-27T05:59:39;4.30;97.80
55135;DHT22;41031;44.750;11.308;2022-11-27T06:02:06;4.30;97.70
55135;DHT22;41031;44.750;11.308;2022-11-27T06:04:34;4.20;97.60
55135;DHT22;41031;44.750;11.308;2022-11-27T06:07:01;4.20;97.60
55135;DHT22;41031;44.750;11.308;2022-11-27T06:09:28;4.20;97.60
55135;DHT22;41031;44.750;11.308;2022-11-27T06:11:55;4.20;97.90
55135;DHT22;41031;44.750;11.308;2022-11-27T06:14:22;4.20;97.70
55135;DHT22;41031;44.750;11.308;2022-11-27T06:16:49;4.20;97.80
55135;DHT22;41031;44.750;11.308;2022-11-27T06:19:16;4.20;97.70
55135;DHT22;41031;44.750;11.308;2022-11-27T06:21:43;4.20;97.70
55135;DHT22;41031;44.750;11.308;2022-11-27T06:24:12;4.20;97.70
55135;DHT22;41031;44.750;11.308;2022-11-27T06:26:39;4.20;97.70
55135;DHT22;41031;44.750;11.308;2022-11-27T06:29:06;4.20;97.70
55135;DHT22;41031;44.750;11.308;2022-11-27T06:31:33;4.20;97.70
55135;DHT22;41031;44.750;11.308;2022-11-27T06:34:01;4.20;97.70
55135;DHT22;41031;44.750;11.308;2022-11-27T06:36:32;4.20;97.70
55135;DHT22;41031;44.750;11.308;2022-11-27T06:39:00;4.20;97.70
55135;DHT22;41031;44.750;11.308;2022-11-27T06:41:27;4.20;97.70
55135;DHT22;41031;44.750;11.308;2022-11-27T06:43:56;4.20;97.80
55135;DHT22;41031;44.750;11.308;2022-11-27T06:46:25;4.30;97.80
55135;DHT22;41031;44.750;11.308;2022-11-27T06:48:53;4.30;97.80
55135;DHT22;41031;44.750;11.308;2022-11-27T06:51:22;4.30;97.80
55135;DHT22;41031;44.750;11.308;2022-11-27T06:53:50;4.30;97.80
55135;DHT22;41031;44.750;11.308;2022-11-27T06:56:20;4.40;97.90
55135;DHT22;41031;44.750;11.308;2022-11-27T06:58:54;4.50;97.80
55135;DHT22;41031;44.750;11.308;2022-11-27T07:01:23;4.50;97.60
55135;DHT22;41031;44.750;11.308;2022-11-27T07:03:50;4.60;97.50
55135;DHT22;41031;44.750;11.308;2022-11-27T07:06:19;4.60;97.40
55135;DHT22;41031;44.750;11.308;2022-11-27T07:08:47;4.60;97.40
55135;DHT22;41031;44.750;11.308;2022-11-27T07:11:19;4.60;97.50
55135;DHT22;41031;44.750;11.308;2022-11-27T07:13:48;4.70;97.60
55135;DHT22;41031;44.750;11.308;2022-11-27T07:16:16;4.70;97.60
55135;DHT22;41031;44.750;11.308;2022-11-27T07:18:46;4.80;97.60
55135;DHT22;41031;44.750;11.308;2022-11-27T07:21:14;4.80;97.60
55135;DHT22;41031;44.750;11.308;2022-11-27T07:23:42;4.80;97.60
55135;DHT22;41031;44.750;11.308;2022-11-27T07:26:12;4.90;97.50
55135;DHT22;41031;44.750;11.308;2022-11-27T07:28:39;4.90;97.60
55135;DHT22;41031;44.750;11.308;2022-11-27T07:31:11;5.00;97.60
55135;DHT22;41031;44.750;11.308;2022-11-27T07:33:38;5.00;97.60
55135;DHT22;41031;44.750;11.308;2022-11-27T07:38:34;5.20;97.60
55135;DHT22;41031;44.750;11.308;2022-11-27T07:41:02;5.30;97.60
55135;DHT22;41031;44.750;11.308;2022-11-27T07:43:31;5.30;97.60
55135;DHT22;41031;44.750;11.308;2022-11-27T07:46:02;5.50;97.60
55135;DHT22;41031;44.750;11.308;2022-11-27T07:48:30;5.50;97.60
55135;DHT22;41031;44.750;11.308;2022-11-27T07:50:57;5.60;97.60
55135;DHT22;41031;44.750;11.308;2022-11-27T07:53:24;5.70;97.60
55135;DHT22;41031;44.750;11.308;2022-11-27T07:55:51;5.80;97.50
55135;DHT22;41031;44.750;11.308;2022-11-27T07:58:18;5.80;97.40
55135;DHT22;41031;44.750;11.308;2022-11-27T08:00:45;5.90;97.40
55135;DHT22;41031;44.750;11.308;2022-11-27T08:03:12;6.00;97.40
55135;DHT22;41031;44.750;11.308;2022-11-27T08:05:39;6.10;97.30
55135;DHT22;41031;44.750;11.308;2022-11-27T08:08:06;6.20;97.20
55135;DHT22;41031;44.750;11.308;2022-11-27T08:10:34;6.20;97.20
55135;DHT22;41031;44.750;11.308;2022-11-27T08:13:02;6.30;97.20
55135;DHT22;41031;44.750;11.308;2022-11-27T08:15:30;6.40;97.10
55135;DHT22;41031;44.750;11.308;2022-11-27T08:17:57;6.50;97.10
55135;DHT22;41031;44.750;11.308;2022-11-27T08:20:24;6.60;97.00
55135;DHT22;41031;44.750;11.308;2022-11-27T08:22:51;6.70;96.90
55135;DHT22;41031;44.750;11.308;2022-11-27T08:25:25;6.70;96.80
55135;DHT22;41031;44.750;11.308;2022-11-27T08:27:52;6.80;96.70
55135;DHT22;41031;44.750;11.308;2022-11-27T08:30:19;6.90;96.70
55135;DHT22;41031;44.750;11.308;2022-11-27T08:32:49;7.00;96.60
55135;DHT22;41031;44.750;11.308;2022-11-27T08:35:16;7.00;96.50
55135;DHT22;41031;44.750;11.308;2022-11-27T08:37:43;7.10;96.40
55135;DHT22;41031;44.750;11.308;2022-11-27T08:40:11;7.20;96.30
55135;DHT22;41031;44.750;11.308;2022-11-27T08:42:38;7.30;96.30
55135;DHT22;41031;44.750;11.308;2022-11-27T08:45:05;7.30;96.20
55135;DHT22;41031;44.750;11.308;2022-11-27T08:47:32;7.40;96.10
55135;DHT22;41031;44.750;11.308;2022-11-27T08:49:59;7.50;96.00
55135;DHT22;41031;44.750;11.308;2022-11-27T08:52:26;7.60;95.90
55135;DHT22;41031;44.750;11.308;2022-11-27T08:54:53;7.60;95.80
55135;DHT22;41031;44.750;11.308;2022-11-27T08:57:23;7.70;95.70
55135;DHT22;41031;44.750;11.308;2022-11-27T08:59:51;7.80;95.60
55135;DHT22;41031;44.750;11.308;2022-11-27T09:02:18;7.80;95.60
55135;DHT22;41031;44.750;11.308;2022-11-27T09:04:45;7.90;95.50
55135;DHT22;41031;44.750;11.308;2022-11-27T09:07:14;8.00;95.40
55135;DHT22;41031;44.750;11.308;2022-11-27T09:09:41;8.00;95.30
55135;DHT22;41031;44.750;11.308;2022-11-27T09:12:08;8.10;95.30
55135;DHT22;41031;44.750;11.308;2022-11-27T09:14:35;8.20;95.30
55135;DHT22;41031;44.750;11.308;2022-11-27T09:17:02;8.20;95.20
55135;DHT22;41031;44.750;11.308;2022-11-27T09:19:30;8.30;95.10
55135;DHT22;41031;44.750;11.308;2022-11-27T09:21:57;8.40;95.10
55135;DHT22;41031;44.750;11.308;2022-11-27T09:24:24;8.50;95.00
55135;DHT22;41031;44.750;11.308;2022-11-27T09:26:51;8.50;94.90
55135;DHT22;41031;44.750;11.308;2022-11-27T09:29:18;8.70;94.80
55135;DHT22;41031;44.750;11.308;2022-11-27T09:31:45;8.70;94.70
55135;DHT22;41031;44.750;11.308;2022-11-27T09:34:12;8.80;94.70
55135;DHT22;41031;44.750;11.308;2022-11-27T09:36:40;8.80;94.60
55135;DHT22;41031;44.750;11.308;2022-11-27T09:39:07;8.90;94.60
55135;DHT22;41031;44.750;11.308;2022-11-27T09:47:47;9.00;94.50
55135;DHT22;41031;44.750;11.308;2022-11-27T09:49:52;9.10;94.50
55135;DHT22;41031;44.750;11.308;2022-11-27T09:52:24;9.20;94.40
55135;DHT22;41031;44.750;11.308;2022-11-27T09:55:01;9.30;94.40
55135;DHT22;41031;44.750;11.308;2022-11-27T09:57:35;9.40;94.40
55135;DHT22;41031;44.750;11.308;2022-11-27T10:00:14;9.40;94.30
55135;DHT22;41031;44.750;11.308;2022-11-27T10:02:41;9.50;94.20
55135;DHT22;41031;44.750;11.308;2022-11-27T10:05:16;9.60;94.10
55135;DHT22;41031;44.750;11.308;2022-11-27T10:10:55;9.80;93.90
55135;DHT22;41031;44.750;11.308;2022-11-27T10:22:03;10.10;93.30
55135;DHT22;41031;44.750;11.308;2022-11-27T10:24:48;10.20;93.10
55135;DHT22;41031;44.750;11.308;2022-11-27T10:27:28;10.30;93.00
55135;DHT22;41031;44.750;11.308;2022-11-27T10:29:58;10.40;92.90
55135;DHT22;41031;44.750;11.308;2022-11-27T10:32:30;10.50;92.80
55135;DHT22;41031;44.750;11.308;2022-11-27T10:35:22;10.50;92.80
55135;DHT22;41031;44.750;11.308;2022-11-27T10:43:24;10.70;92.40
55135;DHT22;41031;44.750;11.308;2022-11-27T10:46:14;10.80;92.40
55135;DHT22;41031;44.750;11.308;2022-11-27T10:48:42;10.90;92.40
55135;DHT22;41031;44.750;11.308;2022-11-27T10:51:18;11.00;92.40
55135;DHT22;41031;44.750;11.308;2022-11-27T10:53:50;11.00;92.20
55135;DHT22;41031;44.750;11.308;2022-11-27T10:59:26;11.20;91.40
55135;DHT22;41031;44.750;11.308;2022-11-27T11:02:00;11.30;91.30
55135;DHT22;41031;44.750;11.308;2022-11-27T11:04:30;11.40;91.20
55135;DHT22;41031;44.750;11.308;2022-11-27T11:07:26;11.50;90.50
55135;DHT22;41031;44.750;11.308;2022-11-27T11:09:54;11.60;89.00
55135;DHT22;41031;44.750;11.308;2022-11-27T11:12:22;11.60;89.30
55135;DHT22;41031;44.750;11.308;2022-11-27T11:14:57;11.70;89.30
55135;DHT22;41031;44.750;11.308;2022-11-27T11:17:30;11.80;89.20
55135;DHT22;41031;44.750;11.308;2022-11-27T11:20:20;11.90;88.50
55135;DHT22;41031;44.750;11.308;2022-11-27T11:22:48;11.90;86.50
55135;DHT22;41031;44.750;11.308;2022-11-27T11:25:17;12.00;86.80
55135;DHT22;41031;44.750;11.308;2022-11-27T11:27:45;12.10;86.90
55135;DHT22;41031;44.750;11.308;2022-11-27T11:30:25;12.20;86.70
55135;DHT22;41031;44.750;11.308;2022-11-27T11:33:00;12.30;85.50
55135;DHT22;41031;44.750;11.308;2022-11-27T11:35:31;12.40;83.80
55135;DHT22;41031;44.750;11.308;2022-11-27T11:38:02;12.40;82.60
55135;DHT22;41031;44.750;11.308;2022-11-27T11:40:33;12.40;81.20
55135;DHT22;41031;44.750;11.308;2022-11-27T11:43:03;12.50;81.50
55135;DHT22;41031;44.750;11.308;2022-11-27T11:45:33;12.50;81.80
55135;DHT22;41031;44.750;11.308;2022-11-27T11:48:18;12.70;82.30
55135;DHT22;41031;44.750;11.308;2022-11-27T11:50:53;12.80;82.40
55135;DHT22;41031;44.750;11.308;2022-11-27T11:53:42;12.80;81.80
55135;DHT22;41031;44.750;11.308;2022-11-27T11:56:36;12.90;80.40
55135;DHT22;41031;44.750;11.308;2022-11-27T11:59:40;13.00;80.00
55135;DHT22;41031;44.750;11.308;2022-11-27T12:02:35;13.00;77.40
55135;DHT22;41031;44.750;11.308;2022-11-27T12:05:15;12.90;76.20
55135;DHT22;41031;44.750;11.308;2022-11-27T12:10:29;12.90;75.50
55135;DHT22;41031;44.750;11.308;2022-11-27T12:15:35;12.90;75.80
55135;DHT22;41031;44.750;11.308;2022-11-27T12:18:10;12.90;74.60
55135;DHT22;41031;44.750;11.308;2022-11-27T12:24:06;12.90;74.50
55135;DHT22;41031;44.750;11.308;2022-11-27T12:32:14;12.90;72.80
55135;DHT22;41031;44.750;11.308;2022-11-27T12:45:46;12.90;73.60
55135;DHT22;41031;44.750;11.308;2022-11-27T12:48:19;12.90;73.90
55135;DHT22;41031;44.750;11.308;2022-11-27T12:50:55;12.90;73.80
55135;DHT22;41031;44.750;11.308;2022-11-27T12:53:32;13.00;74.10
55135;DHT22;41031;44.750;11.308;2022-11-27T12:58:56;12.90;73.20
55135;DHT22;41031;44.750;11.308;2022-11-27T13:01:32;12.90;73.50
55135;DHT22;41031;44.750;11.308;2022-11-27T13:04:21;13.00;73.30
55135;DHT22;41031;44.750;11.308;2022-11-27T13:10:13;13.00;74.40
55135;DHT22;41031;44.750;11.308;2022-11-27T13:12:21;13.00;74.00
55135;DHT22;41031;44.750;11.308;2022-11-27T13:14:59;13.00;74.30
55135;DHT22;41031;44.750;11.308;2022-11-27T13:17:41;13.00;74.30
55135;DHT22;41031;44.750;11.308;2022-11-27T13:20:18;13.00;74.70
55135;DHT22;41031;44.750;11.308;2022-11-27T13:22:47;13.00;74.80
55135;DHT22;41031;44.750;11.308;2022-11-27T13:25:14;13.00;74.00
55135;DHT22;41031;44.750;11.308;2022-11-27T13:27:45;13.00;74.00
55135;DHT22;41031;44.750;11.308;2022-11-27T13:30:24;13.00;73.90
55135;DHT22;41031;44.750;11.308;2022-11-27T13:32:55;12.90;74.20
55135;DHT22;41031;44.750;11.308;2022-11-27T13:38:18;12.80;75.10
55135;DHT22;41031;44.750;11.308;2022-11-27T13:40:48;12.80;75.40
55135;DHT22;41031;44.750;11.308;2022-11-27T13:43:39;12.80;75.60
55135;DHT22;41031;44.750;11.308;2022-11-27T13:46:22;12.80;75.90
55135;DHT22;41031;44.750;11.308;2022-11-27T13:49:00;12.70;75.00
55135;DHT22;41031;44.750;11.308;2022-11-27T13:51:35;12.70;75.00
55135;DHT22;41031;44.750;11.308;2022-11-27T13:54:14;12.70;74.80
55135;DHT22;41031;44.750;11.308;2022-11-27T13:56:42;12.60;74.90
55135;DHT22;41031;44.750;11.308;2022-11-27T14:04:27;12.50;75.60
55135;DHT22;41031;44.750;11.308;2022-11-27T14:09:50;12.40;76.60
55135;DHT22;41031;44.750;11.308;2022-11-27T14:17:44;12.30;77.00
55135;DHT22;41031;44.750;11.308;2022-11-27T14:22:52;12.20;75.90
55135;DHT22;41031;44.750;11.308;2022-11-27T14:25:38;12.20;75.30
55135;DHT22;41031;44.750;11.308;2022-11-27T14:28:21;12.20;75.70
55135;DHT22;41031;44.750;11.308;2022-11-27T14:30:59;12.10;76.30
55135;DHT22;41031;44.750;11.308;2022-11-27T14:33:29;12.10;76.40
55135;DHT22;41031;44.750;11.308;2022-11-27T14:36:03;12.00;76.50
55135;DHT22;41031;44.750;11.308;2022-11-27T14:38:32;12.00;76.60
55135;DHT22;41031;44.750;11.308;2022-11-27T14:41:17;11.90;77.10
55135;DHT22;41031;44.750;11.308;2022-11-27T14:43:44;11.90;77.40
55135;DHT22;41031;44.750;11.308;2022-11-27T14:46:17;11.80;77.90
55135;DHT22;41031;44.750;11.308;2022-11-27T14:48:49;11.80;78.30
55135;DHT22;41031;44.750;11.308;2022-11-27T14:51:27;11.70;78.60
55135;DHT22;41031;44.750;11.308;2022-11-27T14:54:03;11.70;78.80
55135;DHT22;41031;44.750;11.308;2022-11-27T14:56:34;11.60;79.00
55135;DHT22;41031;44.750;11.308;2022-11-27T14:59:02;11.60;80.00
55135;DHT22;41031;44.750;11.308;2022-11-27T15:01:33;11.50;79.50
55135;DHT22;41031;44.750;11.308;2022-11-27T15:04:04;11.50;79.70
55135;DHT22;41031;44.750;11.308;2022-11-27T15:06:42;11.40;80.10
55135;DHT22;41031;44.750;11.308;2022-11-27T15:09:17;11.30;81.00
55135;DHT22;41031;44.750;11.308;2022-11-27T15:15:27;11.10;81.20
55135;DHT22;41031;44.750;11.308;2022-11-27T15:17:37;11.10;81.50
55135;DHT22;41031;44.750;11.308;2022-11-27T15:23:01;10.90;82.40
55135;DHT22;41031;44.750;11.308;2022-11-27T15:25:36;10.80;82.50
55135;DHT22;41031;44.750;11.308;2022-11-27T15:30:50;10.70;83.10
55135;DHT22;41031;44.750;11.308;2022-11-27T15:33:24;10.60;83.20
55135;DHT22;41031;44.750;11.308;2022-11-27T15:36:05;10.50;83.40
55135;DHT22;41031;44.750;11.308;2022-11-27T15:38:39;10.40;83.60
55135;DHT22;41031;44.750;11.308;2022-11-27T15:41:19;10.30;84.00
55135;DHT22;41031;44.750;11.308;2022-11-27T15:43:46;10.20;84.40
55135;DHT22;41031;44.750;11.308;2022-11-27T15:46:13;10.10;84.50
55135;DHT22;41031;44.750;11.308;2022-11-27T15:48:41;10.10;84.90
55135;DHT22;41031;44.750;11.308;2022-11-27T15:51:08;10.00;85.20
55135;DHT22;41031;44.750;11.308;2022-11-27T15:53:35;9.90;85.50
55135;DHT22;41031;44.750;11.308;2022-11-27T15:56:02;9.90;85.90
55135;DHT22;41031;44.750;11.308;2022-11-27T15:58:30;9.80;86.00
55135;DHT22;41031;44.750;11.308;2022-11-27T16:00:57;9.70;86.30
55135;DHT22;41031;44.750;11.308;2022-11-27T16:03:24;9.70;86.50
55135;DHT22;41031;44.750;11.308;2022-11-27T16:05:51;9.60;86.70
55135;DHT22;41031;44.750;11.308;2022-11-27T16:08:18;9.60;87.00
55135;DHT22;41031;44.750;11.308;2022-11-27T16:10:45;9.50;87.20
55135;DHT22;41031;44.750;11.308;2022-11-27T16:13:11;9.50;87.50
55135;DHT22;41031;44.750;11.308;2022-11-27T16:15:40;9.40;87.60
55135;DHT22;41031;44.750;11.308;2022-11-27T16:18:07;9.40;87.80
55135;DHT22;41031;44.750;11.308;2022-11-27T16:20:34;9.30;88.00
55135;DHT22;41031;44.750;11.308;2022-11-27T16:23:01;9.30;88.30
55135;DHT22;41031;44.750;11.308;2022-11-27T16:25:28;9.20;88.50
55135;DHT22;41031;44.750;11.308;2022-11-27T16:27:55;9.20;88.60
55135;DHT22;41031;44.750;11.308;2022-11-27T16:30:28;9.10;88.70
55135;DHT22;41031;44.750;11.308;2022-11-27T16:32:55;9.10;88.90
55135;DHT22;41031;44.750;11.308;2022-11-27T16:35:24;9.00;89.00
55135;DHT22;41031;44.750;11.308;2022-11-27T16:37:52;9.00;89.30
55135;DHT22;41031;44.750;11.308;2022-11-27T16:40:19;8.90;89.50
55135;DHT22;41031;44.750;11.308;2022-11-27T16:42:47;8.90;89.80
55135;DHT22;41031;44.750;11.308;2022-11-27T16:45:14;8.90;90.00
55135;DHT22;41031;44.750;11.308;2022-11-27T16:47:41;8.80;90.10
55135;DHT22;41031;44.750;11.308;2022-11-27T16:50:08;8.80;90.20
55135;DHT22;41031;44.750;11.308;2022-11-27T16:52:36;8.80;90.30
55135;DHT22;41031;44.750;11.308;2022-11-27T16:55:03;8.70;90.60
55135;DHT22;41031;44.750;11.308;2022-11-27T16:57:30;8.60;90.30
55135;DHT22;41031;44.750;11.308;2022-11-27T16:59:58;8.60;90.40
55135;DHT22;41031;44.750;11.308;2022-11-27T17:02:25;8.50;90.50
55135;DHT22;41031;44.750;11.308;2022-11-27T17:04:55;8.50;90.70
55135;DHT22;41031;44.750;11.308;2022-11-27T17:07:21;8.40;90.80
55135;DHT22;41031;44.750;11.308;2022-11-27T17:09:49;8.40;91.00
55135;DHT22;41031;44.750;11.308;2022-11-27T17:12:16;8.40;91.10
55135;DHT22;41031;44.750;11.308;2022-11-27T17:14:43;8.30;91.20
55135;DHT22;41031;44.750;11.308;2022-11-27T17:17:12;8.30;91.30
55135;DHT22;41031;44.750;11.308;2022-11-27T17:19:40;8.30;91.40
55135;DHT22;41031;44.750;11.308;2022-11-27T17:22:08;8.30;91.60
55135;DHT22;41031;44.750;11.308;2022-11-27T17:24:36;8.30;91.70
55135;DHT22;41031;44.750;11.308;2022-11-27T17:27:05;8.20;91.70
55135;DHT22;41031;44.750;11.308;2022-11-27T17:29:34;8.20;91.80
55135;DHT22;41031;44.750;11.308;2022-11-27T17:32:02;8.10;91.90
55135;DHT22;41031;44.750;11.308;2022-11-27T17:34:31;8.10;92.00
55135;DHT22;41031;44.750;11.308;2022-11-27T17:36:58;8.10;92.20
55135;DHT22;41031;44.750;11.308;2022-11-27T17:39:25;8.00;92.10
55135;DHT22;41031;44.750;11.308;2022-11-27T17:41:52;7.90;92.10
55135;DHT22;41031;44.750;11.308;2022-11-27T17:44:19;7.90;92.30
55135;DHT22;41031;44.750;11.308;2022-11-27T17:46:46;7.80;92.50